sensor_id;sensor_type;location;lat;lon;timestamp;pressure;altitude;pressure_sealevel;temperature;humidity
58843;BME280;44614;54.356;10.100;2024-01-15T00:01:05;98671.88;;;0.71;100.00
58843;BME280;44614;54.356;10.100;2024-01-15T00:03:31;98660.03;;;0.72;100.00
58843;BME280;44614;54.356;10.100;2024-01-15T00:05:56;98661.06;;;0.71;100.00
58843;BME280;44614;54.356;10.100;2024-01-15T00:08:22;98658.59;;;0.70;100.00
58843;BME280;44614;54.356;10.100;2024-01-15T00:10:47;98671.91;;;0.65;100.00
58843;BME280;44614;54.356;10.100;2024-01-15T00:13:13;98669.44;;;0.57;100.00
58843;BME280;44614;54.356;10.100;2024-01-15T00:15:38;98664.91;;;0.44;100.00
58843;BME280;44614;54.356;10.100;2024-01-15T00:18:03;98666.16;;;0.35;100.00
58843;BME280;44614;54.356;10.100;2024-01-15T00:20:29;98645.00;;;0.25;100.00
58843;BME280;44614;54.356;10.100;2024-01-15T00:22:54;98636.91;;;0.18;100.00
58843;BME280;44614;54.356;10.100;2024-01-15T00:25:19;98624.66;;;0.16;100.00
58843;BME280;44614;54.356;10.100;2024-01-15T00:27:45;98620.50;;;0.13;100.00
58843;BME280;44614;54.356;10.100;2024-01-15T00:30:10;98607.84;;;0.14;100.00
58843;BME280;44614;54.356;10.100;2024-01-15T00:32:35;98604.94;;;0.15;100.00
58843;BME280;44614;54.356;10.100;2024-01-15T00:35:01;98602.25;;;0.15;100.00
58843;BME280;44614;54.356;10.100;2024-01-15T00:37:26;98610.94;;;0.17;100.00
58843;BME280;44614;54.356;10.100;2024-01-15T00:39:51;98601.63;;;0.20;100.00
58843;BME280;44614;54.356;10.100;2024-01-15T00:42:17;98603.91;;;0.23;100.00
58843;BME280;44614;54.356;10.100;2024-01-15T00:44:43;98606.97;;;0.27;100.00
58843;BME280;44614;54.356;10.100;2024-01-15T00:47:08;98603.44;;;0.33;100.00
58843;BME280;44614;54.356;10.100;2024-01-15T00:49:33;98600.94;;;0.38;100.00
58843;BME280;44614;54.356;10.100;2024-01-15T00:51:58;98608.59;;;0.41;100.00
58843;BME280;44614;54.356;10.100;2024-01-15T00:54:24;98601.97;;;0.43;100.00
58843;BME280;44614;54.356;10.100;2024-01-15T00:56:49;98598.03;;;0.46;100.00
58843;BME280;44614;54.356;10.100;2024-01-15T00:59:14;98606.72;;;0.48;100.00
58843;BME280;44614;54.356;10.100;2024-01-15T01:01:40;98592.56;;;0.53;100.00
58843;BME280;44614;54.356;10.100;2024-01-15T01:04:08;98586.16;;;0.54;100.00
58843;BME280;44614;54.356;10.100;2024-01-15T01:06:34;98596.72;;;0.55;100.00
58843;BME280;44614;54.356;10.100;2024-01-15T01:08:59;98597.31;;;0.57;100.00
58843;BME280;44614;54.356;10.100;2024-01-15T01:11:24;98595.47;;;0.58;100.00
58843;BME280;44614;54.356;10.100;2024-01-15T01:13:50;98596.31;;;0.58;100.00
58843;BME280;44614;54.356;10.100;2024-01-15T01:16:15;98593.78;;;0.63;100.00
58843;BME280;44614;54.356;10.100;2024-01-15T01:18:40;98600.00;;;0.64;100.00
58843;BME280;44614;54.356;10.100;2024-01-15T01:21:05;98597.72;;;0.67;100.00
58843;BME280;44614;54.356;10.100;2024-01-15T01:23:31;98607.47;;;0.68;100.00
58843;BME280;44614;54.356;10.100;2024-01-15T01:25:56;98602.91;;;0.69;100.00
58843;BME280;44614;54.356;10.100;2024-01-15T01:28:21;98604.56;;;0.70;100.00
58843;BME280;44614;54.356;10.100;2024-01-15T01:30:47;98596.25;;;0.71;100.00
58843;BME280;44614;54.356;10.100;2024-01-15T01:33:12;98600.81;;;0.71;100.00
58843;BME280;44614;54.356;10.100;2024-01-15T01:35:37;98608.69;;;0.72;100.00
58843;BME280;44614;54.356;10.100;2024-01-15T01:38:03;98604.56;;;0.77;100.00
58843;BME280;44614;54.356;10.100;2024-01-15T01:40:28;98604.56;;;0.77;100.00
58843;BME280;44614;54.356;10.100;2024-01-15T01:42:53;98600.16;;;0.76;100.00
58843;BME280;44614;54.356;10.100;2024-01-15T01:45:19;98595.00;;;0.74;100.00
58843;BME280;44614;54.356;10.100;2024-01-15T01:47:44;98597.06;;;0.72;100.00
58843;BME280;44614;54.356;10.100;2024-01-15T01:50:10;98591.06;;;0.70;100.00
58843;BME280;44614;54.356;10.100;2024-01-15T01:52:36;98591.25;;;0.68;100.00
58843;BME280;44614;54.356;10.100;2024-01-15T01:55:02;98587.97;;;0.66;100.00
58843;BME280;44614;54.356;10.100;2024-01-15T01:57:28;98598.13;;;0.64;100.00
58843;BME280;44614;54.356;10.100;2024-01-15T01:59:54;98594.84;;;0.62;100.00
58843;BME280;44614;54.356;10.100;2024-01-15T02:02:20;98597.72;;;0.61;100.00
58843;BME280;44614;54.356;10.100;2024-01-15T02:04:47;98604.19;;;0.60;100.00
58843;BME280;44614;54.356;10.100;2024-01-15T02:07:12;98596.72;;;0.62;100.00
58843;BME280;44614;54.356;10.100;2024-01-15T02:09:38;98590.91;;;0.58;100.00
58843;BME280;44614;54.356;10.100;2024-01-15T02:12:03;98589.84;;;0.59;100.00
58843;BME280;44614;54.356;10.100;2024-01-15T02:14:28;98595.03;;;0.61;100.00
58843;BME280;44614;54.356;10.100;2024-01-15T02:16:54;98585.09;;;0.61;100.00
58843;BME280;44614;54.356;10.100;2024-01-15T02:19:19;98582.81;;;0.58;100.00
58843;BME280;44614;54.356;10.100;2024-01-15T02:21:44;98583.81;;;0.57;100.00
58843;BME280;44614;54.356;10.100;2024-01-15T02:24:10;98574.06;;;0.56;100.00
58843;BME280;44614;54.356;10.100;2024-01-15T02:26:36;98576.16;;;0.54;100.00
58843;BME280;44614;54.356;10.100;2024-01-15T02:29:03;98575.53;;;0.52;100.00
58843;BME280;44614;54.356;10.100;2024-01-15T02:31:28;98572.25;;;0.50;100.00
58843;BME280;44614;54.356;10.100;2024-01-15T02:33:54;98574.09;;;0.49;100.00
58843;BME280;44614;54.356;10.100;2024-01-15T02:36:19;98580.94;;;0.52;100.00
58843;BME280;44614;54.356;10.100;2024-01-15T02:38:44;98572.84;;;0.52;100.00
58843;BME280;44614;54.356;10.100;2024-01-15T02:41:10;98585.28;;;0.53;100.00
58843;BME280;44614;54.356;10.100;2024-01-15T02:43:35;98581.78;;;0.53;100.00
58843;BME280;44614;54.356;10.100;2024-01-15T02:46:00;98578.47;;;0.51;100.00
58843;BME280;44614;54.356;10.100;2024-01-15T02:48:26;98578.88;;;0.47;100.00
58843;BME280;44614;54.356;10.100;2024-01-15T02:50:51;98580.13;;;0.45;100.00
58843;BME280;44614;54.356;10.100;2024-01-15T02:53:16;98597.63;;;0.42;100.00
58843;BME280;44614;54.356;10.100;2024-01-15T02:55:42;98596.75;;;0.42;100.00
58843;BME280;44614;54.356;10.100;2024-01-15T02:58:07;98594.28;;;0.40;100.00
58843;BME280;44614;54.356;10.100;2024-01-15T03:00:32;98606.13;;;0.39;100.00
58843;BME280;44614;54.356;10.100;2024-01-15T03:02:58;98610.72;;;0.39;100.00
58843;BME280;44614;54.356;10.100;2024-01-15T03:05:23;98613.41;;;0.39;100.00
58843;BME280;44614;54.356;10.100;2024-01-15T03:07:48;98631.25;;;0.40;100.00
58843;BME280;44614;54.356;10.100;2024-01-15T03:10:14;98622.34;;;0.39;100.00
58843;BME280;44614;54.356;10.100;2024-01-15T03:12:39;98615.47;;;0.37;100.00
58843;BME280;44614;54.356;10.100;2024-01-15T03:15:04;98624.44;;;0.31;100.00
58843;BME280;44614;54.356;10.100;2024-01-15T03:17:30;98622.56;;;0.24;100.00
58843;BME280;44614;54.356;10.100;2024-01-15T03:19:55;98629.44;;;0.20;100.00
58843;BME280;44614;54.356;10.100;2024-01-15T03:22:20;98624.44;;;0.17;100.00
58843;BME280;44614;54.356;10.100;2024-01-15T03:24:46;98624.88;;;0.14;100.00
58843;BME280;44614;54.356;10.100;2024-01-15T03:27:11;98622.16;;;0.14;100.00
58843;BME280;44614;54.356;10.100;2024-01-15T03:29:36;98627.56;;;0.14;100.00
58843;BME280;44614;54.356;10.100;2024-01-15T03:32:02;98624.88;;;0.14;100.00
58843;BME280;44614;54.356;10.100;2024-01-15T03:34:27;98637.34;;;0.15;100.00
58843;BME280;44614;54.356;10.100;2024-01-15T03:36:53;98630.25;;;0.14;100.00
58843;BME280;44614;54.356;10.100;2024-01-15T03:39:18;98633.59;;;0.16;100.00
58843;BME280;44614;54.356;10.100;2024-01-15T03:41:43;98638.56;;;0.19;100.00
58843;BME280;44614;54.356;10.100;2024-01-15T03:44:09;98637.53;;;0.20;100.00
58843;BME280;44614;54.356;10.100;2024-01-15T03:46:34;98638.34;;;0.21;100.00
58843;BME280;44614;54.356;10.100;2024-01-15T03:48:59;98641.69;;;0.23;100.00
58843;BME280;44614;54.356;10.100;2024-01-15T03:51:24;98646.63;;;0.26;100.00
58843;BME280;44614;54.356;10.100;2024-01-15T03:53:50;98632.13;;;0.27;100.00
58843;BME280;44614;54.356;10.100;2024-01-15T03:56:15;98649.97;;;0.28;100.00
58843;BME280;44614;54.356;10.100;2024-01-15T03:58:40;98653.50;;;0.29;100.00
58843;BME280;44614;54.356;10.100;2024-01-15T04:01:09;98647.06;;;0.30;100.00
58843;BME280;44614;54.356;10.100;2024-01-15T04:03:34;98648.50;;;0.32;100.00
58843;BME280;44614;54.356;10.100;2024-01-15T04:06:00;98657.66;;;0.31;100.00
58843;BME280;44614;54.356;10.100;2024-01-15T04:08:25;98656.63;;;0.32;100.00
58843;BME280;44614;54.356;10.100;2024-01-15T04:10:50;98652.25;;;0.31;100.00
58843;BME280;44614;54.356;10.100;2024-01-15T04:13:16;98653.69;;;0.34;100.00
58843;BME280;44614;54.356;10.100;2024-01-15T04:15:41;98659.72;;;0.36;100.00
58843;BME280;44614;54.356;10.100;2024-01-15T04:18:06;98653.28;;;0.37;100.00
58843;BME280;44614;54.356;10.100;2024-01-15T04:20:32;98662.63;;;0.41;100.00
58843;BME280;44614;54.356;10.100;2024-01-15T04:22:57;98662.63;;;0.41;100.00
58843;BME280;44614;54.356;10.100;2024-01-15T04:25:22;98665.94;;;0.43;100.00
58843;BME280;44614;54.356;10.100;2024-01-15T04:27:48;98669.47;;;0.43;100.00
58843;BME280;44614;54.356;10.100;2024-01-15T04:30:13;98676.34;;;0.46;100.00
58843;BME280;44614;54.356;10.100;2024-01-15T04:32:38;98676.09;;;0.47;100.00
58843;BME280;44614;54.356;10.100;2024-01-15T04:35:04;98675.06;;;0.48;100.00
58843;BME280;44614;54.356;10.100;2024-01-15T04:37:29;98683.78;;;0.51;100.00
58843;BME280;44614;54.356;10.100;2024-01-15T04:39:54;98678.16;;;0.52;100.00
58843;BME280;44614;54.356;10.100;2024-01-15T04:42:23;98684.41;;;0.53;100.00
58843;BME280;44614;54.356;10.100;2024-01-15T04:44:48;98684.41;;;0.53;100.00
58843;BME280;44614;54.356;10.100;2024-01-15T04:47:14;98684.22;;;0.54;100.00
58843;BME280;44614;54.356;10.100;2024-01-15T04:49:39;98685.03;;;0.55;100.00
58843;BME280;44614;54.356;10.100;2024-01-15T04:52:04;98687.91;;;0.53;100.00
58843;BME280;44614;54.356;10.100;2024-01-15T04:54:30;98690.03;;;0.51;100.00
58843;BME280;44614;54.356;10.100;2024-01-15T04:56:55;98684.81;;;0.49;100.00
58843;BME280;44614;54.356;10.100;2024-01-15T04:59:20;98698.31;;;0.49;100.00
58843;BME280;44614;54.356;10.100;2024-01-15T05:01:46;98713.09;;;0.47;100.00
58843;BME280;44614;54.356;10.100;2024-01-15T05:04:11;98696.88;;;0.47;100.00
58843;BME280;44614;54.356;10.100;2024-01-15T05:06:36;98709.34;;;0.48;100.00
58843;BME280;44614;54.356;10.100;2024-01-15T05:09:01;98701.00;;;0.49;100.00
58843;BME280;44614;54.356;10.100;2024-01-15T05:11:28;98714.53;;;0.49;100.00
58843;BME280;44614;54.356;10.100;2024-01-15T05:13:53;98710.16;;;0.48;100.00
58843;BME280;44614;54.356;10.100;2024-01-15T05:16:19;98711.81;;;0.49;100.00
58843;BME280;44614;54.356;10.100;2024-01-15T05:18:44;98713.69;;;0.49;100.00
58843;BME280;44614;54.356;10.100;2024-01-15T05:21:09;98706.63;;;0.48;100.00
58843;BME280;44614;54.356;10.100;2024-01-15T05:23:35;98713.91;;;0.47;100.00
58843;BME280;44614;54.356;10.100;2024-01-15T05:26:01;98715.97;;;0.45;100.00
58843;BME280;44614;54.356;10.100;2024-01-15T05:28:26;98718.91;;;0.44;100.00
58843;BME280;44614;54.356;10.100;2024-01-15T05:30:51;98718.06;;;0.43;100.00
58843;BME280;44614;54.356;10.100;2024-01-15T05:33:17;98718.50;;;0.40;100.00
58843;BME280;44614;54.356;10.100;2024-01-15T05:35:43;98718.50;;;0.40;100.00
58843;BME280;44614;54.356;10.100;2024-01-15T05:38:08;98726.81;;;0.39;100.00
58843;BME280;44614;54.356;10.100;2024-01-15T05:40:33;98725.97;;;0.38;100.00
58843;BME280;44614;54.356;10.100;2024-01-15T05:42:59;98721.59;;;0.37;100.00
58843;BME280;44614;54.356;10.100;2024-01-15T05:45:26;98726.41;;;0.35;100.00
58843;BME280;44614;54.356;10.100;2024-01-15T05:47:51;98735.31;;;0.36;100.00
58843;BME280;44614;54.356;10.100;2024-01-15T05:50:16;98734.50;;;0.35;100.00
58843;BME280;44614;54.356;10.100;2024-01-15T05:52:42;98732.81;;;0.34;100.00
58843;BME280;44614;54.356;10.100;2024-01-15T05:55:07;98734.69;;;0.34;99.67
58843;BME280;44614;54.356;10.100;2024-01-15T05:57:32;98746.53;;;0.33;99.11
58843;BME280;44614;54.356;10.100;2024-01-15T05:59:58;98744.88;;;0.32;98.51
58843;BME280;44614;54.356;10.100;2024-01-15T06:02:23;98742.19;;;0.32;98.92
58843;BME280;44614;54.356;10.100;2024-01-15T06:04:48;98744.25;;;0.30;98.06
58843;BME280;44614;54.356;10.100;2024-01-15T06:07:14;98740.72;;;0.29;97.67
58843;BME280;44614;54.356;10.100;2024-01-15T06:09:39;98742.59;;;0.29;97.79
58843;BME280;44614;54.356;10.100;2024-01-15T06:12:05;98749.03;;;0.28;98.37
58843;BME280;44614;54.356;10.100;2024-01-15T06:14:30;98752.97;;;0.25;98.74
58843;BME280;44614;54.356;10.100;2024-01-15T06:16:56;98755.06;;;0.23;99.25
58843;BME280;44614;54.356;10.100;2024-01-15T06:19:21;98753.38;;;0.22;99.39
58843;BME280;44614;54.356;10.100;2024-01-15T06:21:46;98752.78;;;0.20;100.00
58843;BME280;44614;54.356;10.100;2024-01-15T06:24:12;98753.78;;;0.19;99.73
58843;BME280;44614;54.356;10.100;2024-01-15T06:26:38;98756.50;;;0.19;99.82
58843;BME280;44614;54.356;10.100;2024-01-15T06:29:04;98763.75;;;0.18;100.00
58843;BME280;44614;54.356;10.100;2024-01-15T06:31:29;98754.66;;;0.19;100.00
58843;BME280;44614;54.356;10.100;2024-01-15T06:33:55;98761.06;;;0.18;100.00
58843;BME280;44614;54.356;10.100;2024-01-15T06:36:20;98761.06;;;0.18;100.00
58843;BME280;44614;54.356;10.100;2024-01-15T06:38:46;98761.28;;;0.17;100.00
58843;BME280;44614;54.356;10.100;2024-01-15T06:41:11;98770.44;;;0.16;100.00
58843;BME280;44614;54.356;10.100;2024-01-15T06:43:36;98766.03;;;0.15;100.00
58843;BME280;44614;54.356;10.100;2024-01-15T06:46:02;98775.41;;;0.12;100.00
58843;BME280;44614;54.356;10.100;2024-01-15T06:48:27;98771.25;;;0.10;100.00
58843;BME280;44614;54.356;10.100;2024-01-15T06:50:52;98772.28;;;0.09;100.00
58843;BME280;44614;54.356;10.100;2024-01-15T06:53:18;98781.63;;;0.06;100.00
58843;BME280;44614;54.356;10.100;2024-01-15T06:55:43;98775.38;;;0.06;100.00
58843;BME280;44614;54.356;10.100;2024-01-15T06:58:08;98778.31;;;0.04;100.00
58843;BME280;44614;54.356;10.100;2024-01-15T07:00:33;98786.41;;;0.04;100.00
58843;BME280;44614;54.356;10.100;2024-01-15T07:02:59;98782.00;;;0.03;100.00
58843;BME280;44614;54.356;10.100;2024-01-15T07:05:24;98781.19;;;0.03;100.00
58843;BME280;44614;54.356;10.100;2024-01-15T07:07:49;98798.22;;;0.03;100.00
58843;BME280;44614;54.356;10.100;2024-01-15T07:10:15;98794.50;;;0.04;100.00
58843;BME280;44614;54.356;10.100;2024-01-15T07:12:43;98805.28;;;0.04;100.00
58843;BME280;44614;54.356;10.100;2024-01-15T07:15:09;98809.00;;;0.03;100.00
58843;BME280;44614;54.356;10.100;2024-01-15T07:17:34;98801.94;;;0.02;100.00
58843;BME280;44614;54.356;10.100;2024-01-15T07:20:00;98824.38;;;0.03;100.00
58843;BME280;44614;54.356;10.100;2024-01-15T07:22:25;98818.16;;;0.02;100.00
58843;BME280;44614;54.356;10.100;2024-01-15T07:24:51;98818.38;;;0.01;100.00
58843;BME280;44614;54.356;10.100;2024-01-15T07:27:16;98822.06;;;-0.01;100.00
58843;BME280;44614;54.356;10.100;2024-01-15T07:29:41;98823.94;;;-0.01;100.00
58843;BME280;44614;54.356;10.100;2024-01-15T07:32:08;98822.28;;;-0.02;100.00
58843;BME280;44614;54.356;10.100;2024-01-15T07:34:33;98828.72;;;-0.03;100.00
58843;BME280;44614;54.356;10.100;2024-01-15T07:36:58;98832.25;;;-0.03;100.00
58843;BME280;44614;54.356;10.100;2024-01-15T07:39:24;98833.31;;;-0.04;100.00
58843;BME280;44614;54.356;10.100;2024-01-15T07:41:53;98845.31;;;-0.06;100.00
58843;BME280;44614;54.356;10.100;2024-01-15T07:44:18;98839.09;;;-0.07;100.00
58843;BME280;44614;54.356;10.100;2024-01-15T07:46:44;98845.50;;;-0.08;100.00
58843;BME280;44614;54.356;10.100;2024-01-15T07:49:10;98847.19;;;-0.07;100.00
58843;BME280;44614;54.356;10.100;2024-01-15T07:51:35;98857.16;;;-0.07;100.00
58843;BME280;44614;54.356;10.100;2024-01-15T07:54:01;98854.84;;;-0.10;100.00
58843;BME280;44614;54.356;10.100;2024-01-15T07:56:26;98861.28;;;-0.11;100.00
58843;BME280;44614;54.356;10.100;2024-01-15T07:58:52;98863.34;;;-0.13;100.00
58843;BME280;44614;54.356;10.100;2024-01-15T08:01:18;98871.66;;;-0.15;100.00
58843;BME280;44614;54.356;10.100;2024-01-15T08:03:43;98877.47;;;-0.18;100.00
58843;BME280;44614;54.356;10.100;2024-01-15T08:06:08;98881.19;;;-0.19;100.00
58843;BME280;44614;54.356;10.100;2024-01-15T08:08:35;98878.91;;;-0.22;100.00
58843;BME280;44614;54.356;10.100;2024-01-15T08:11:00;98880.94;;;-0.24;100.00
58843;BME280;44614;54.356;10.100;2024-01-15T08:13:26;98881.34;;;-0.27;100.00
58843;BME280;44614;54.356;10.100;2024-01-15T08:15:51;98881.56;;;-0.29;100.00
58843;BME280;44614;54.356;10.100;2024-01-15T08:18:16;98890.69;;;-0.30;100.00
58843;BME280;44614;54.356;10.100;2024-01-15T08:20:42;98888.81;;;-0.29;100.00
58843;BME280;44614;54.356;10.100;2024-01-15T08:23:07;98897.94;;;-0.30;100.00
58843;BME280;44614;54.356;10.100;2024-01-15T08:25:33;98901.47;;;-0.30;100.00
58843;BME280;44614;54.356;10.100;2024-01-15T08:27:58;98900.84;;;-0.32;100.00
58843;BME280;44614;54.356;10.100;2024-01-15T08:30:23;98909.13;;;-0.33;100.00
58843;BME280;44614;54.356;10.100;2024-01-15T08:32:55;98912.00;;;-0.35;100.00
58843;BME280;44614;54.356;10.100;2024-01-15T08:35:21;98917.41;;;-0.35;98.55
58843;BME280;44614;54.356;10.100;2024-01-15T08:37:51;98918.44;;;-0.36;99.03
58843;BME280;44614;54.356;10.100;2024-01-15T08:40:16;98920.09;;;-0.35;98.77
58843;BME280;44614;54.356;10.100;2024-01-15T08:42:42;98920.09;;;-0.35;98.37
58843;BME280;44614;54.356;10.100;2024-01-15T08:45:07;98939.00;;;-0.35;97.79
58843;BME280;44614;54.356;10.100;2024-01-15T08:47:32;98937.31;;;-0.36;97.51
58843;BME280;44614;54.356;10.100;2024-01-15T08:49:58;98932.31;;;-0.39;94.26
58843;BME280;44614;54.356;10.100;2024-01-15T08:52:24;98940.41;;;-0.39;95.19
58843;BME280;44614;54.356;10.100;2024-01-15T08:54:49;98947.50;;;-0.38;95.21
58843;BME280;44614;54.356;10.100;2024-01-15T08:57:15;98951.22;;;-0.39;95.37
58843;BME280;44614;54.356;10.100;2024-01-15T08:59:40;98946.84;;;-0.40;95.78
58843;BME280;44614;54.356;10.100;2024-01-15T09:02:06;98942.06;;;-0.44;95.41
58843;BME280;44614;54.356;10.100;2024-01-15T09:04:32;98964.47;;;-0.44;96.55
58843;BME280;44614;54.356;10.100;2024-01-15T09:06:57;98957.41;;;-0.45;97.40
58843;BME280;44614;54.356;10.100;2024-01-15T09:09:23;98962.38;;;-0.48;95.76
58843;BME280;44614;54.356;10.100;2024-01-15T09:11:48;98970.84;;;-0.52;95.66
58843;BME280;44614;54.356;10.100;2024-01-15T09:14:13;98970.41;;;-0.55;94.39
58843;BME280;44614;54.356;10.100;2024-01-15T09:16:39;98973.09;;;-0.55;96.03
58843;BME280;44614;54.356;10.100;2024-01-15T09:19:05;98984.91;;;-0.56;96.22
58843;BME280;44614;54.356;10.100;2024-01-15T09:21:30;98991.16;;;-0.56;97.13
58843;BME280;44614;54.356;10.100;2024-01-15T09:23:55;98987.63;;;-0.56;97.59
58843;BME280;44614;54.356;10.100;2024-01-15T09:26:21;98986.97;;;-0.58;97.45
58843;BME280;44614;54.356;10.100;2024-01-15T09:28:46;99001.50;;;-0.59;96.94
58843;BME280;44614;54.356;10.100;2024-01-15T09:31:11;99006.06;;;-0.60;96.47
58843;BME280;44614;54.356;10.100;2024-01-15T09:33:37;99008.53;;;-0.58;96.90
58843;BME280;44614;54.356;10.100;2024-01-15T09:36:02;99007.72;;;-0.59;96.63
58843;BME280;44614;54.356;10.100;2024-01-15T09:38:31;99009.38;;;-0.58;96.51
58843;BME280;44614;54.356;10.100;2024-01-15T09:41:01;99010.41;;;-0.59;95.32
58843;BME280;44614;54.356;10.100;2024-01-15T09:43:26;99021.63;;;-0.55;95.98
58843;BME280;44614;54.356;10.100;2024-01-15T09:45:55;99027.03;;;-0.55;95.47
58843;BME280;44614;54.356;10.100;2024-01-15T09:48:21;99028.69;;;-0.54;95.25
58843;BME280;44614;54.356;10.100;2024-01-15T09:50:48;99033.91;;;-0.53;94.66
58843;BME280;44614;54.356;10.100;2024-01-15T09:53:14;99036.00;;;-0.48;95.46
58843;BME280;44614;54.356;10.100;2024-01-15T09:55:41;99045.75;;;-0.47;95.49
58843;BME280;44614;54.356;10.100;2024-01-15T09:58:16;99046.78;;;-0.48;95.11
58843;BME280;44614;54.356;10.100;2024-01-15T10:00:45;99049.09;;;-0.45;95.39
58843;BME280;44614;54.356;10.100;2024-01-15T10:03:13;99053.06;;;-0.41;95.68
58843;BME280;44614;54.356;10.100;2024-01-15T10:05:39;99051.66;;;-0.37;95.32
58843;BME280;44614;54.356;10.100;2024-01-15T10:08:05;99046.88;;;-0.35;94.70
58843;BME280;44614;54.356;10.100;2024-01-15T10:10:31;99044.81;;;-0.33;94.82
58843;BME280;44614;54.356;10.100;2024-01-15T10:12:58;99047.91;;;-0.36;92.18
58843;BME280;44614;54.356;10.100;2024-01-15T10:15:23;99050.00;;;-0.38;91.08
58843;BME280;44614;54.356;10.100;2024-01-15T10:17:49;99054.97;;;-0.35;92.85
58843;BME280;44614;54.356;10.100;2024-01-15T10:20:15;99048.13;;;-0.37;89.28
58843;BME280;44614;54.356;10.100;2024-01-15T10:22:41;99044.38;;;-0.36;89.99
58843;BME280;44614;54.356;10.100;2024-01-15T10:25:09;99050.22;;;-0.33;90.26
58843;BME280;44614;54.356;10.100;2024-01-15T10:27:35;99047.53;;;-0.33;89.90
58843;BME280;44614;54.356;10.100;2024-01-15T10:30:01;99052.53;;;-0.30;91.16
58843;BME280;44614;54.356;10.100;2024-01-15T10:32:27;99062.88;;;-0.33;89.94
58843;BME280;44614;54.356;10.100;2024-01-15T10:34:52;99057.50;;;-0.33;88.77
58843;BME280;44614;54.356;10.100;2024-01-15T10:37:18;99069.09;;;-0.33;89.44
58843;BME280;44614;54.356;10.100;2024-01-15T10:39:45;99066.63;;;-0.34;89.74
58843;BME280;44614;54.356;10.100;2024-01-15T10:42:11;99069.50;;;-0.36;89.51
58843;BME280;44614;54.356;10.100;2024-01-15T10:44:36;99068.28;;;-0.33;90.38
58843;BME280;44614;54.356;10.100;2024-01-15T10:47:02;99065.38;;;-0.32;90.89
58843;BME280;44614;54.356;10.100;2024-01-15T10:49:27;99076.81;;;-0.30;90.38
58843;BME280;44614;54.356;10.100;2024-01-15T10:51:54;99092.16;;;-0.30;89.79
58843;BME280;44614;54.356;10.100;2024-01-15T10:54:19;99091.13;;;-0.29;90.62
58843;BME280;44614;54.356;10.100;2024-01-15T10:56:46;99096.69;;;-0.31;89.80
58843;BME280;44614;54.356;10.100;2024-01-15T10:59:12;99099.16;;;-0.36;88.04
58843;BME280;44614;54.356;10.100;2024-01-15T11:01:37;99102.69;;;-0.35;87.62
58843;BME280;44614;54.356;10.100;2024-01-15T11:04:03;99100.25;;;-0.30;88.83
58843;BME280;44614;54.356;10.100;2024-01-15T11:06:29;99107.31;;;-0.29;85.77
58843;BME280;44614;54.356;10.100;2024-01-15T11:09:05;99101.72;;;-0.28;87.53
58843;BME280;44614;54.356;10.100;2024-01-15T11:11:34;99107.09;;;-0.28;86.13
58843;BME280;44614;54.356;10.100;2024-01-15T11:14:00;99119.53;;;-0.33;83.38
58843;BME280;44614;54.356;10.100;2024-01-15T11:16:25;99109.94;;;-0.36;82.92
58843;BME280;44614;54.356;10.100;2024-01-15T11:19:12;99118.41;;;-0.39;83.15
58843;BME280;44614;54.356;10.100;2024-01-15T11:21:41;99108.88;;;-0.41;84.89
58843;BME280;44614;54.356;10.100;2024-01-15T11:24:07;99113.00;;;-0.45;83.18
58843;BME280;44614;54.356;10.100;2024-01-15T11:29:02;99109.44;;;-0.46;85.04
58843;BME280;44614;54.356;10.100;2024-01-15T11:34:09;99114.44;;;-0.43;85.96
58843;BME280;44614;54.356;10.100;2024-01-15T11:41:56;99126.34;;;-0.37;86.50
58843;BME280;44614;54.356;10.100;2024-01-15T11:44:21;99122.41;;;-0.35;86.78
58843;BME280;44614;54.356;10.100;2024-01-15T11:47:24;99121.63;;;-0.29;88.18
58843;BME280;44614;54.356;10.100;2024-01-15T11:52:13;99135.94;;;-0.28;86.25
58843;BME280;44614;54.356;10.100;2024-01-15T11:54:40;99129.34;;;-0.26;86.71
58843;BME280;44614;54.356;10.100;2024-01-15T11:57:09;99136.84;;;-0.21;87.44
58843;BME280;44614;54.356;10.100;2024-01-15T11:59:35;99132.94;;;-0.18;86.92
58843;BME280;44614;54.356;10.100;2024-01-15T12:02:01;99141.03;;;-0.18;87.37
58843;BME280;44614;54.356;10.100;2024-01-15T12:04:27;99139.16;;;-0.18;86.59
58843;BME280;44614;54.356;10.100;2024-01-15T12:06:52;99135.19;;;-0.22;85.34
58843;BME280;44614;54.356;10.100;2024-01-15T12:09:20;99127.69;;;-0.27;85.06
58843;BME280;44614;54.356;10.100;2024-01-15T12:11:48;99138.47;;;-0.27;84.32
58843;BME280;44614;54.356;10.100;2024-01-15T12:14:16;99136.41;;;-0.25;85.63
58843;BME280;44614;54.356;10.100;2024-01-15T12:16:41;99136.41;;;-0.25;86.31
58843;BME280;44614;54.356;10.100;2024-01-15T12:19:06;99134.91;;;-0.27;85.17
58843;BME280;44614;54.356;10.100;2024-01-15T12:21:32;99131.00;;;-0.25;86.72
58843;BME280;44614;54.356;10.100;2024-01-15T12:23:57;99131.66;;;-0.22;87.14
58843;BME280;44614;54.356;10.100;2024-01-15T12:26:22;99139.34;;;-0.19;88.10
58843;BME280;44614;54.356;10.100;2024-01-15T12:28:49;99136.47;;;-0.18;87.83
58843;BME280;44614;54.356;10.100;2024-01-15T12:31:14;99136.06;;;-0.15;88.21
58843;BME280;44614;54.356;10.100;2024-01-15T12:33:40;99135.03;;;-0.14;87.88
58843;BME280;44614;54.356;10.100;2024-01-15T12:36:05;99139.22;;;-0.11;87.60
58843;BME280;44614;54.356;10.100;2024-01-15T12:38:31;99138.19;;;-0.10;88.32
58843;BME280;44614;54.356;10.100;2024-01-15T12:40:56;99143.56;;;-0.10;87.61
58843;BME280;44614;54.356;10.100;2024-01-15T12:43:21;99141.03;;;-0.18;82.91
58843;BME280;44614;54.356;10.100;2024-01-15T12:45:47;99150.78;;;-0.17;84.15
58843;BME280;44614;54.356;10.100;2024-01-15T12:48:12;99138.56;;;-0.13;85.96
58843;BME280;44614;54.356;10.100;2024-01-15T12:50:42;99139.00;;;-0.10;86.14
58843;BME280;44614;54.356;10.100;2024-01-15T12:53:07;99142.53;;;-0.09;85.69
58843;BME280;44614;54.356;10.100;2024-01-15T12:55:33;99147.59;;;0.01;86.63